Time;durP1;ratioP1;P1;durP2;ratioP2;P2;SDS_P1;SDS_P2;PMS_P1;PMS_P2;Temp;Humidity;BMP_temperature;BMP_pressure;BME280_temperature;BME280_humidity;BME280_pressure;Samples;Min_cycle;Max_cycle;Signal;HPM_P1;HPM_P2
2022/07/21 00:00:58;;;;;;;5.82;3.65;;;;;;;;;;5022058;28;20037;-59
2022/07/21 00:03:24;;;;;;;9.07;3.63;;;;;;;;;;5029992;28;20029;-59
2022/07/21 00:05:50;;;;;;;9.30;3.90;;;;;;;;;;5021657;28;20036;-60
2022/07/21 00:08:16;;;;;;;6.95;3.53;;;;;;;;;;5026548;28;20060;-57
2022/07/21 00:10:42;;;;;;;7.20;3.30;;;;;;;;;;5024138;28;20096;-60
2022/07/21 00:13:08;;;;;;;8.07;3.33;;;;;;;;;;5029537;28;20029;-59
2022/07/21 00:15:34;;;;;;;9.13;3.85;;;;;;;;;;5019727;28;20101;-60
2022/07/21 00:18:00;;;;;;;8.98;3.38;;;;;;;;;;5030053;28;20102;-60
2022/07/21 00:20:30;;;;;;;9.65;4.07;;;;;;;;;;5018325;28;20049;-60
2022/07/21 00:22:56;;;;;;;7.55;3.63;;;;;;;;;;5019037;28;20026;-60
2022/07/21 00:25:22;;;;;;;10.45;3.80;;;;;;;;;;5028844;28;20036;-60
2022/07/21 00:27:48;;;;;;;5.38;3.30;;;;;;;;;;5024066;28;20056;-59
2022/07/21 00:30:14;;;;;;;7.55;3.83;;;;;;;;;;5021195;28;20038;-59
2022/07/21 00:32:40;;;;;;;7.03;3.05;;;;;;;;;;5026695;28;20615;-60
2022/07/21 00:35:07;;;;;;;7.47;4.00;;;;;;;;;;5020878;28;20067;-59
2022/07/21 00:37:33;;;;;;;9.65;3.40;;;;;;;;;;5027916;28;20979;-60
2022/07/21 00:39:59;;;;;;;7.65;3.90;;;;;;;;;;5024287;28;20022;-60
2022/07/21 00:42:26;;;;;;;5.35;3.40;;;;;;;;;;5019810;28;20477;-60
2022/07/21 00:44:52;;;;;;;8.48;3.80;;;;;;;;;;5015878;28;20389;-60
2022/07/21 00:47:22;;;;;;;7.13;3.72;;;;;;;;;;5026644;28;20120;-60
2022/07/21 00:49:48;;;;;;;9.57;3.47;;;;;;;;;;5026502;28;20436;-60
2022/07/21 00:52:14;;;;;;;10.27;3.42;;;;;;;;;;5025202;28;20033;-60
2022/07/21 00:54:40;;;;;;;7.68;4.07;;;;;;;;;;5021579;28;20358;-60
2022/07/21 00:57:06;;;;;;;8.15;3.63;;;;;;;;;;5029855;28;20056;-60
2022/07/21 00:59:32;;;;;;;7.30;3.72;;;;;;;;;;5031683;28;20520;-60
2022/07/21 01:01:58;;;;;;;6.72;3.80;;;;;;;;;;5026759;28;20052;-57
2022/07/21 01:04:26;;;;;;;6.75;3.70;;;;;;;;;;5023993;28;20041;-57
2022/07/21 01:06:53;;;;;;;6.38;3.80;;;;;;;;;;5028603;28;20029;-57
2022/07/21 01:09:19;;;;;;;10.48;4.15;;;;;;;;;;5031400;28;20033;-57
2022/07/21 01:11:45;;;;;;;6.40;3.45;;;;;;;;;;5028597;28;20033;-55
2022/07/21 01:14:11;;;;;;;9.30;3.75;;;;;;;;;;5021078;28;20377;-58
2022/07/21 01:16:37;;;;;;;10.32;3.92;;;;;;;;;;5021820;28;20034;-57
2022/07/21 01:19:04;;;;;;;7.72;3.45;;;;;;;;;;5032001;28;20116;-58
2022/07/21 01:21:30;;;;;;;6.68;3.75;;;;;;;;;;5028060;28;20034;-56
2022/07/21 01:23:56;;;;;;;5.75;3.65;;;;;;;;;;5023907;28;20029;-58
2022/07/21 01:26:22;;;;;;;9.02;3.60;;;;;;;;;;5020629;28;20512;-56
2022/07/21 01:28:48;;;;;;;9.52;3.63;;;;;;;;;;5029174;28;20405;-56
2022/07/21 01:31:14;;;;;;;9.10;4.32;;;;;;;;;;5029521;28;20041;-56
2022/07/21 01:33:41;;;;;;;5.68;3.45;;;;;;;;;;5027645;28;20608;-58
2022/07/21 01:36:08;;;;;;;8.57;3.58;;;;;;;;;;5030770;28;20036;-58
2022/07/21 01:41:31;;;;;;;6.55;3.65;;;;;;;;;;5021377;28;20591;-57
2022/07/21 01:43:58;;;;;;;7.68;3.75;;;;;;;;;;5030046;28;20512;-58
2022/07/21 01:46:24;;;;;;;6.32;3.20;;;;;;;;;;5024916;28;20374;-57
2022/07/21 01:48:50;;;;;;;9.45;3.85;;;;;;;;;;5034645;28;20037;-57
2022/07/21 01:51:16;;;;;;;8.18;3.78;;;;;;;;;;5030396;28;20029;-57
2022/07/21 01:53:42;;;;;;;5.78;3.72;;;;;;;;;;5030130;28;20029;-57
2022/07/21 01:56:08;;;;;;;10.73;3.80;;;;;;;;;;5026712;28;20044;-57
2022/07/21 01:58:34;;;;;;;5.75;3.85;;;;;;;;;;5028708;28;20036;-57
2022/07/21 02:01:00;;;;;;;5.82;3.20;;;;;;;;;;5030016;28;20545;-57
2022/07/21 02:03:26;;;;;;;7.20;3.40;;;;;;;;;;5030560;28;20068;-58
2022/07/21 02:05:52;;;;;;;5.50;3.85;;;;;;;;;;5033141;28;20029;-56
2022/07/21 02:08:18;;;;;;;7.28;3.45;;;;;;;;;;5033092;28;20549;-56
2022/07/21 02:10:44;;;;;;;7.80;4.00;;;;;;;;;;5020900;28;20033;-57
2022/07/21 02:13:10;;;;;;;7.40;3.67;;;;;;;;;;5026722;28;20037;-57
2022/07/21 02:15:36;;;;;;;7.40;4.07;;;;;;;;;;5030449;28;20108;-57
2022/07/21 02:18:02;;;;;;;8.38;3.67;;;;;;;;;;5023963;28;20042;-57
2022/07/21 02:20:28;;;;;;;6.95;3.55;;;;;;;;;;5029168;28;20013;-57
2022/07/21 02:22:54;;;;;;;6.20;3.70;;;;;;;;;;5030080;28;20385;-57
2022/07/21 02:25:20;;;;;;;5.90;3.28;;;;;;;;;;5032894;28;20057;-56
2022/07/21 02:27:47;;;;;;;12.55;4.20;;;;;;;;;;5019491;28;20435;-57
2022/07/21 02:30:13;;;;;;;7.15;3.70;;;;;;;;;;5033771;28;20017;-57
2022/07/21 02:32:39;;;;;;;7.32;3.75;;;;;;;;;;5030198;28;20249;-57
2022/07/21 02:35:06;;;;;;;5.53;3.85;;;;;;;;;;5027522;28;20628;-57
2022/07/21 02:37:32;;;;;;;8.38;3.53;;;;;;;;;;5021255;28;20033;-57
2022/07/21 02:39:58;;;;;;;9.95;4.20;;;;;;;;;;5032633;28;20377;-57
2022/07/21 02:42:24;;;;;;;8.32;3.88;;;;;;;;;;5028561;28;20033;-57
2022/07/21 02:44:50;;;;;;;8.02;3.55;;;;;;;;;;5020257;28;20391;-56
2022/07/21 02:47:16;;;;;;;8.00;3.95;;;;;;;;;;5018053;28;20040;-56
2022/07/21 02:49:42;;;;;;;12.30;3.55;;;;;;;;;;5026084;28;20033;-56
2022/07/21 02:52:08;;;;;;;8.98;4.47;;;;;;;;;;5031091;28;20025;-56
2022/07/21 02:54:34;;;;;;;5.75;3.65;;;;;;;;;;5032943;28;20037;-57
2022/07/21 02:57:00;;;;;;;7.40;3.42;;;;;;;;;;5025188;28;20045;-57
2022/07/21 02:59:26;;;;;;;8.55;3.83;;;;;;;;;;5025159;28;20033;-57
2022/07/21 03:01:52;;;;;;;7.35;3.80;;;;;;;;;;5031863;28;20104;-56
2022/07/21 03:04:18;;;;;;;6.72;3.88;;;;;;;;;;5031840;28;20036;-57
2022/07/21 03:06:44;;;;;;;10.38;3.80;;;;;;;;;;5032716;28;20489;-57
2022/07/21 03:09:10;;;;;;;9.45;3.83;;;;;;;;;;5032833;28;20036;-57
2022/07/21 03:11:36;;;;;;;7.28;3.95;;;;;;;;;;5021788;28;20064;-58
2022/07/21 03:14:02;;;;;;;7.28;3.75;;;;;;;;;;5015123;28;20033;-57
2022/07/21 03:16:28;;;;;;;5.55;3.30;;;;;;;;;;5030033;28;20033;-56
2022/07/21 03:18:55;;;;;;;7.10;3.92;;;;;;;;;;5027774;28;20147;-57
2022/07/21 03:21:20;;;;;;;7.75;3.88;;;;;;;;;;5030022;28;20374;-57
2022/07/21 03:23:46;;;;;;;8.15;3.97;;;;;;;;;;5012526;28;20045;-57
2022/07/21 03:26:13;;;;;;;12.25;3.42;;;;;;;;;;5029151;28;20393;-57
2022/07/21 03:28:39;;;;;;;5.88;3.97;;;;;;;;;;5016251;28;20504;-57
2022/07/21 03:31:05;;;;;;;5.32;3.35;;;;;;;;;;5023170;28;20037;-57
2022/07/21 03:33:31;;;;;;;10.25;3.90;;;;;;;;;;5026525;28;20037;-57
2022/07/21 03:35:58;;;;;;;11.77;4.00;;;;;;;;;;5032116;28;20040;-58
2022/07/21 03:38:24;;;;;;;7.95;3.65;;;;;;;;;;5030720;28;20044;-57
2022/07/21 03:40:50;;;;;;;7.72;4.03;;;;;;;;;;5030577;28;20025;-56
2022/07/21 03:43:16;;;;;;;8.43;4.13;;;;;;;;;;5016112;28;20144;-57
2022/07/21 03:45:42;;;;;;;10.93;3.92;;;;;;;;;;5026105;28;20049;-56
2022/07/21 03:48:09;;;;;;;10.27;3.97;;;;;;;;;;5023636;28;20060;-57
2022/07/21 03:50:36;;;;;;;7.20;4.10;;;;;;;;;;5028379;28;20078;-56
2022/07/21 03:53:02;;;;;;;8.13;3.55;;;;;;;;;;5031811;28;20089;-57
2022/07/21 03:55:29;;;;;;;5.88;3.55;;;;;;;;;;5026612;28;20041;-56
2022/07/21 03:57:56;;;;;;;7.90;3.97;;;;;;;;;;5031746;28;20077;-57
2022/07/21 04:00:24;;;;;;;9.15;3.72;;;;;;;;;;5029625;28;20681;-56
2022/07/21 04:02:50;;;;;;;6.15;3.47;;;;;;;;;;5028352;28;20426;-57
2022/07/21 04:05:17;;;;;;;9.32;3.60;;;;;;;;;;5033839;28;20029;-57
2022/07/21 04:07:44;;;;;;;6.18;3.13;;;;;;;;;;5031457;28;20432;-57
2022/07/21 04:10:10;;;;;;;10.15;3.72;;;;;;;;;;5033132;28;20129;-56
2022/07/21 04:12:36;;;;;;;10.10;3.83;;;;;;;;;;5028655;28;20026;-57
2022/07/21 04:15:03;;;;;;;7.88;3.30;;;;;;;;;;5030018;28;20026;-56
2022/07/21 04:17:29;;;;;;;8.00;3.20;;;;;;;;;;5028983;28;20037;-56
2022/07/21 04:19:55;;;;;;;7.00;3.47;;;;;;;;;;5028155;28;20025;-57
2022/07/21 04:22:21;;;;;;;6.45;3.78;;;;;;;;;;5030077;28;20029;-58
2022/07/21 04:24:47;;;;;;;7.15;4.00;;;;;;;;;;5029804;28;20034;-57
2022/07/21 04:27:13;;;;;;;7.97;5.10;;;;;;;;;;5028819;28;20083;-58
2022/07/21 04:29:39;;;;;;;10.90;6.25;;;;;;;;;;5029062;28;20538;-56
2022/07/21 04:32:05;;;;;;;16.75;8.25;;;;;;;;;;5041330;28;20029;-57
2022/07/21 04:34:31;;;;;;;20.05;9.85;;;;;;;;;;5025217;28;20057;-57
2022/07/21 04:36:57;;;;;;;15.02;9.25;;;;;;;;;;5030590;28;20068;-57
2022/07/21 04:39:23;;;;;;;16.70;9.57;;;;;;;;;;5041536;28;20022;-57
2022/07/21 04:41:49;;;;;;;20.05;10.25;;;;;;;;;;5027365;28;20036;-57
2022/07/21 04:44:15;;;;;;;15.82;9.60;;;;;;;;;;5030678;28;20051;-56
2022/07/21 04:46:41;;;;;;;15.95;10.13;;;;;;;;;;5036816;28;20104;-56
2022/07/21 04:49:06;;;;;;;17.73;11.52;;;;;;;;;;5030146;28;20431;-57
2022/07/21 04:51:32;;;;;;;19.08;11.13;;;;;;;;;;5024662;28;20034;-57
2022/07/21 04:53:58;;;;;;;16.05;10.80;;;;;;;;;;5020191;28;20029;-57
2022/07/21 04:56:24;;;;;;;16.63;11.20;;;;;;;;;;5030618;28;20045;-57
2022/07/21 04:58:50;;;;;;;20.92;11.52;;;;;;;;;;5023328;28;20113;-57
2022/07/21 05:01:18;;;;;;;23.33;12.77;;;;;;;;;;5031058;28;20036;-57
2022/07/21 05:03:44;;;;;;;24.02;12.68;;;;;;;;;;5021762;28;20104;-56
2022/07/21 05:06:10;;;;;;;20.50;12.73;;;;;;;;;;5028088;28;20034;-57
2022/07/21 05:08:36;;;;;;;16.50;11.93;;;;;;;;;;5026433;28;20032;-57
2022/07/21 05:11:02;;;;;;;21.00;12.32;;;;;;;;;;5030379;28;20508;-56
2022/07/21 05:13:28;;;;;;;24.23;13.10;;;;;;;;;;5029756;28;20072;-57
2022/07/21 05:15:54;;;;;;;19.33;11.90;;;;;;;;;;5029171;28;20037;-56
2022/07/21 05:18:20;;;;;;;23.40;12.75;;;;;;;;;;5029864;28;20484;-55
2022/07/21 05:20:46;;;;;;;19.98;12.38;;;;;;;;;;5030085;28;20556;-57
2022/07/21 05:23:12;;;;;;;18.08;12.07;;;;;;;;;;5030626;28;20022;-57
2022/07/21 05:25:38;;;;;;;23.63;12.95;;;;;;;;;;5030869;28;20041;-57
2022/07/21 05:28:05;;;;;;;22.23;12.00;;;;;;;;;;5029558;28;20034;-57
2022/07/21 05:30:31;;;;;;;17.77;12.40;;;;;;;;;;5035890;28;20484;-57
2022/07/21 05:32:57;;;;;;;22.23;12.98;;;;;;;;;;5029920;28;20087;-58
2022/07/21 05:35:23;;;;;;;17.30;11.70;;;;;;;;;;5040352;28;20037;-57
2022/07/21 05:37:49;;;;;;;20.48;12.05;;;;;;;;;;5029642;28;20033;-57
2022/07/21 05:40:15;;;;;;;19.58;12.75;;;;;;;;;;5030295;28;20030;-57
2022/07/21 05:42:41;;;;;;;21.75;12.38;;;;;;;;;;5029713;28;20626;-57
2022/07/21 05:45:07;;;;;;;21.02;12.57;;;;;;;;;;5031258;28;20111;-56
2022/07/21 05:47:33;;;;;;;19.75;12.50;;;;;;;;;;5032753;28;20022;-56
2022/07/21 05:49:59;;;;;;;19.98;11.50;;;;;;;;;;5032522;28;20184;-57
2022/07/21 05:52:26;;;;;;;16.60;11.55;;;;;;;;;;5033417;28;20477;-57
2022/07/21 05:54:52;;;;;;;18.35;12.00;;;;;;;;;;5044878;28;20440;-56
2022/07/21 05:57:18;;;;;;;20.40;12.35;;;;;;;;;;5029384;28;20045;-57
2022/07/21 05:59:44;;;;;;;19.38;12.00;;;;;;;;;;5038446;28;20033;-57
2022/07/21 06:02:10;;;;;;;17.90;11.00;;;;;;;;;;5034035;28;20029;-57
2022/07/21 06:04:36;;;;;;;19.10;11.70;;;;;;;;;;5026347;28;20041;-57
2022/07/21 06:07:02;;;;;;;21.13;10.90;;;;;;;;;;5030398;28;20036;-57
2022/07/21 06:09:28;;;;;;;18.38;11.02;;;;;;;;;;5013956;28;20598;-57
2022/07/21 06:11:54;;;;;;;21.98;11.38;;;;;;;;;;5026663;28;20026;-56
2022/07/21 06:14:20;;;;;;;20.77;10.60;;;;;;;;;;5031455;28;20032;-58
2022/07/21 06:16:46;;;;;;;18.90;10.88;;;;;;;;;;5030739;28;20485;-57
2022/07/21 06:19:12;;;;;;;16.58;11.15;;;;;;;;;;5027515;28;20037;-57
2022/07/21 06:21:40;;;;;;;14.38;9.68;;;;;;;;;;5031912;28;20102;-56
2022/07/21 06:24:06;;;;;;;18.40;11.00;;;;;;;;;;5031061;28;20465;-56
2022/07/21 06:26:32;;;;;;;19.42;10.55;;;;;;;;;;5032972;28;20036;-56
2022/07/21 06:28:58;;;;;;;18.30;10.55;;;;;;;;;;5033010;28;20030;-58
2022/07/21 06:31:24;;;;;;;17.17;11.27;;;;;;;;;;5043654;28;20484;-57
2022/07/21 06:33:50;;;;;;;18.90;10.88;;;;;;;;;;5031771;28;20040;-58
2022/07/21 06:36:16;;;;;;;18.58;9.88;;;;;;;;;;5033488;28;20044;-57
2022/07/21 06:38:44;;;;;;;15.73;9.90;;;;;;;;;;5032946;28;20064;-57
2022/07/21 06:41:10;;;;;;;17.30;10.77;;;;;;;;;;5030158;28;20045;-57
2022/07/21 06:43:36;;;;;;;16.20;9.52;;;;;;;;;;5027059;28;20048;-56
2022/07/21 06:46:02;;;;;;;21.58;9.90;;;;;;;;;;5034175;28;20029;-58
2022/07/21 06:48:28;;;;;;;12.25;9.25;;;;;;;;;;5032340;28;20048;-56
2022/07/21 06:50:55;;;;;;;17.58;9.65;;;;;;;;;;5031887;28;20060;-57
2022/07/21 06:53:21;;;;;;;17.38;9.75;;;;;;;;;;5023320;28;20032;-58
2022/07/21 06:55:49;;;;;;;11.90;9.00;;;;;;;;;;5024702;28;20083;-57
2022/07/21 06:58:17;;;;;;;15.20;9.70;;;;;;;;;;5028235;28;20048;-57
2022/07/21 07:00:43;;;;;;;16.85;9.55;;;;;;;;;;5025261;28;20080;-58
2022/07/21 07:03:09;;;;;;;14.05;8.77;;;;;;;;;;5021770;28;20025;-57
2022/07/21 07:05:35;;;;;;;16.25;9.55;;;;;;;;;;5031493;28;20544;-57
2022/07/21 07:08:01;;;;;;;13.65;9.00;;;;;;;;;;5029406;28;20038;-57
2022/07/21 07:10:28;;;;;;;14.55;9.35;;;;;;;;;;5032781;28;20476;-57
2022/07/21 07:12:54;;;;;;;14.55;8.90;;;;;;;;;;5020315;28;20592;-57
2022/07/21 07:15:20;;;;;;;14.02;8.48;;;;;;;;;;5028840;28;20037;-57
2022/07/21 07:17:46;;;;;;;15.50;9.25;;;;;;;;;;5027971;28;20112;-57
2022/07/21 07:20:12;;;;;;;15.15;9.35;;;;;;;;;;5027767;28;20036;-57
2022/07/21 07:22:38;;;;;;;13.68;8.55;;;;;;;;;;5030128;28;20033;-57
2022/07/21 07:25:05;;;;;;;14.88;8.45;;;;;;;;;;5027889;28;20503;-58
2022/07/21 07:27:31;;;;;;;15.07;8.32;;;;;;;;;;5028255;28;20580;-58
2022/07/21 07:29:57;;;;;;;13.15;8.32;;;;;;;;;;5024395;28;20037;-58
2022/07/21 07:32:23;;;;;;;12.55;8.32;;;;;;;;;;5028810;28;20128;-58
2022/07/21 07:34:49;;;;;;;14.70;8.05;;;;;;;;;;5026286;28;20048;-57
2022/07/21 07:37:15;;;;;;;14.45;8.73;;;;;;;;;;5029035;28;20041;-57
2022/07/21 07:39:41;;;;;;;15.60;7.70;;;;;;;;;;5027839;28;20037;-57
2022/07/21 07:42:07;;;;;;;11.57;8.52;;;;;;;;;;5021212;28;20493;-57
2022/07/21 07:44:33;;;;;;;15.50;7.70;;;;;;;;;;5024121;28;20513;-57
2022/07/21 07:47:01;;;;;;;13.32;7.72;;;;;;;;;;5027130;28;20144;-57
2022/07/21 07:49:28;;;;;;;19.88;8.05;;;;;;;;;;5019183;28;20036;-58
2022/07/21 07:51:54;;;;;;;15.25;8.20;;;;;;;;;;5019139;28;20552;-57
2022/07/21 07:54:20;;;;;;;12.95;7.07;;;;;;;;;;5023360;28;20037;-58
2022/07/21 07:56:46;;;;;;;15.82;8.38;;;;;;;;;;5028074;28;20125;-57
2022/07/21 07:59:12;;;;;;;11.70;7.40;;;;;;;;;;5026024;28;20564;-57
2022/07/21 08:01:38;;;;;;;12.13;7.82;;;;;;;;;;5023564;28;20022;-57
2022/07/21 08:04:04;;;;;;;12.32;6.97;;;;;;;;;;5031320;28;20105;-57
2022/07/21 08:06:30;;;;;;;16.83;7.55;;;;;;;;;;5028654;28;20048;-57
2022/07/21 08:08:56;;;;;;;13.45;7.18;;;;;;;;;;5026936;28;20029;-58
2022/07/21 08:11:22;;;;;;;12.77;7.75;;;;;;;;;;5022348;28;20064;-58
2022/07/21 08:13:48;;;;;;;15.70;6.95;;;;;;;;;;5019511;28;20061;-58
2022/07/21 08:16:15;;;;;;;12.32;7.07;;;;;;;;;;5022270;28;20026;-58
2022/07/21 08:18:41;;;;;;;12.70;7.10;;;;;;;;;;5030157;28;20112;-57
2022/07/21 08:21:07;;;;;;;13.68;7.35;;;;;;;;;;5022659;28;20493;-57
2022/07/21 08:23:33;;;;;;;14.05;7.13;;;;;;;;;;5019551;28;20075;-56
2022/07/21 08:25:59;;;;;;;16.40;7.03;;;;;;;;;;5034166;28;20027;-58
2022/07/21 08:28:25;;;;;;;13.02;6.93;;;;;;;;;;5021590;28;20041;-57
2022/07/21 08:30:51;;;;;;;11.05;6.43;;;;;;;;;;5037967;28;20358;-57
2022/07/21 08:33:17;;;;;;;9.38;6.50;;;;;;;;;;5026498;28;20037;-58
2022/07/21 08:35:43;;;;;;;11.50;6.60;;;;;;;;;;5025315;28;20128;-58
2022/07/21 08:38:11;;;;;;;12.63;6.22;;;;;;;;;;5031887;28;20033;-58
2022/07/21 08:40:39;;;;;;;10.70;7.18;;;;;;;;;;5028291;28;20097;-58
2022/07/21 08:43:06;;;;;;;10.32;6.13;;;;;;;;;;5017736;28;20025;-57
2022/07/21 08:45:32;;;;;;;13.80;6.15;;;;;;;;;;5016008;28;20077;-58
2022/07/21 08:47:59;;;;;;;11.65;6.35;;;;;;;;;;5025271;28;20586;-57
2022/07/21 08:50:28;;;;;;;13.77;6.70;;;;;;;;;;5024178;28;20037;-56
2022/07/21 08:52:54;;;;;;;13.82;6.15;;;;;;;;;;5030871;28;20092;-58
2022/07/21 08:55:20;;;;;;;9.45;5.28;;;;;;;;;;5030697;28;20025;-59
2022/07/21 08:57:46;;;;;;;11.90;6.25;;;;;;;;;;5023421;28;20053;-58
2022/07/21 09:00:12;;;;;;;8.80;5.90;;;;;;;;;;5024902;28;20109;-57
2022/07/21 09:02:38;;;;;;;12.85;6.78;;;;;;;;;;5022254;28;20057;-57
2022/07/21 09:05:07;;;;;;;10.95;7.03;;;;;;;;;;5033589;28;20033;-56
2022/07/21 09:07:50;;;;;;;12.25;5.97;;;;;;;;;;5030289;28;20551;-57
2022/07/21 09:10:16;;;;;;;10.93;6.15;;;;;;;;;;5021053;28;20616;-57
2022/07/21 09:12:52;;;;;;;10.13;5.60;;;;;;;;;;5029714;28;20030;-57
2022/07/21 09:15:19;;;;;;;11.82;5.20;;;;;;;;;;5030200;28;20112;-57
2022/07/21 09:17:45;;;;;;;9.18;6.32;;;;;;;;;;5039482;28;20486;-57
2022/07/21 09:20:24;;;;;;;9.65;5.60;;;;;;;;;;5024478;28;20484;-58
2022/07/21 09:23:08;;;;;;;7.97;5.50;;;;;;;;;;5033459;28;20092;-58
2022/07/21 09:25:40;;;;;;;11.88;5.07;;;;;;;;;;5023696;28;20183;-57
2022/07/21 09:28:17;;;;;;;9.68;4.95;;;;;;;;;;5033425;28;20037;-57
2022/07/21 09:30:50;;;;;;;7.15;4.82;;;;;;;;;;5026941;28;20034;-57
2022/07/21 09:33:25;;;;;;;7.43;4.97;;;;;;;;;;5029131;28;20029;-59
2022/07/21 09:35:52;;;;;;;10.05;5.25;;;;;;;;;;5016344;28;20037;-58
2022/07/21 09:38:18;;;;;;;7.00;4.78;;;;;;;;;;5026587;28;20374;-57
2022/07/21 09:40:48;;;;;;;13.40;4.45;;;;;;;;;;5031627;28;20033;-58
2022/07/21 09:43:29;;;;;;;15.52;5.25;;;;;;;;;;5024699;28;20033;-57
2022/07/21 09:45:55;;;;;;;9.35;4.05;;;;;;;;;;5021615;28;20036;-57
2022/07/21 09:48:38;;;;;;;10.23;4.55;;;;;;;;;;5024778;28;20437;-57
2022/07/21 09:51:22;;;;;;;7.40;4.53;;;;;;;;;;5032195;28;20040;-58
2022/07/21 09:53:50;;;;;;;9.98;3.85;;;;;;;;;;5027213;28;20640;-57
2022/07/21 09:56:17;;;;;;;9.65;4.05;;;;;;;;;;5024649;28;20501;-57
2022/07/21 09:58:44;;;;;;;8.50;4.47;;;;;;;;;;5030785;28;20070;-57
2022/07/21 10:01:10;;;;;;;8.75;3.85;;;;;;;;;;5031317;28;20465;-58
2022/07/21 10:03:37;;;;;;;8.82;4.45;;;;;;;;;;5028199;28;20029;-57
2022/07/21 10:06:03;;;;;;;5.40;3.92;;;;;;;;;;5028697;28;20032;-57
2022/07/21 10:08:29;;;;;;;5.53;4.07;;;;;;;;;;5033022;28;20033;-58
2022/07/21 10:10:55;;;;;;;9.00;3.90;;;;;;;;;;5017523;28;20033;-57
2022/07/21 10:13:22;;;;;;;7.97;4.18;;;;;;;;;;5022209;28;20036;-57
2022/07/21 10:15:48;;;;;;;7.10;4.43;;;;;;;;;;5031003;28;20465;-57
2022/07/21 10:18:16;;;;;;;8.32;4.07;;;;;;;;;;5024817;28;20041;-57
2022/07/21 10:20:47;;;;;;;7.15;3.97;;;;;;;;;;5035340;28;20048;-61
2022/07/21 10:23:16;;;;;;;10.15;3.92;;;;;;;;;;5026855;28;20025;-57
2022/07/21 10:25:43;;;;;;;9.90;3.70;;;;;;;;;;5028154;28;20018;-57
2022/07/21 10:28:22;;;;;;;10.27;3.50;;;;;;;;;;5030932;28;20420;-58
2022/07/21 10:30:51;;;;;;;6.05;3.85;;;;;;;;;;5026186;28;20033;-57
2022/07/21 10:33:19;;;;;;;9.45;3.50;;;;;;;;;;5034209;28;20032;-57
2022/07/21 10:35:46;;;;;;;6.15;3.35;;;;;;;;;;5029503;28;20033;-58
2022/07/21 10:38:26;;;;;;;5.20;3.33;;;;;;;;;;5028697;28;20037;-57
2022/07/21 10:40:53;;;;;;;10.88;3.70;;;;;;;;;;5035481;28;20024;-58
2022/07/21 10:43:25;;;;;;;5.90;3.40;;;;;;;;;;5031572;28;20381;-57
2022/07/21 10:45:51;;;;;;;8.25;3.67;;;;;;;;;;5032513;28;20029;-58
2022/07/21 10:48:35;;;;;;;6.07;3.72;;;;;;;;;;5028959;28;20026;-57
2022/07/21 10:51:02;;;;;;;11.18;3.47;;;;;;;;;;5036457;28;20033;-57
2022/07/21 10:53:31;;;;;;;6.07;3.92;;;;;;;;;;5032840;28;20037;-57
2022/07/21 10:55:57;;;;;;;7.07;3.63;;;;;;;;;;5031976;28;20482;-57
2022/07/21 10:58:23;;;;;;;8.25;3.97;;;;;;;;;;5025652;28;20037;-58
2022/07/21 11:00:50;;;;;;;7.55;3.50;;;;;;;;;;5023502;28;20025;-58
2022/07/21 11:03:21;;;;;;;11.13;3.90;;;;;;;;;;5027366;28;20020;-56
2022/07/21 11:06:13;;;;;;;10.27;3.80;;;;;;;;;;5029557;28;20421;-58
2022/07/21 11:08:41;;;;;;;11.83;3.93;;;;;;;;;;5015693;28;20033;-58
2022/07/21 11:11:11;;;;;;;9.27;3.83;;;;;;;;;;5031409;28;20484;-59
2022/07/21 11:13:56;;;;;;;7.28;3.80;;;;;;;;;;5022153;28;20041;-57
2022/07/21 11:16:22;;;;;;;11.32;3.67;;;;;;;;;;5027295;28;20389;-57
2022/07/21 11:18:48;;;;;;;5.72;3.53;;;;;;;;;;5029185;28;20032;-57
2022/07/21 11:21:15;;;;;;;6.88;4.00;;;;;;;;;;5029632;28;20567;-56
2022/07/21 11:23:48;;;;;;;8.27;4.00;;;;;;;;;;5026908;28;20026;-57
2022/07/21 11:26:14;;;;;;;;;;;;;;;;;;5032069;28;20552;-57
2022/07/21 11:28:41;;;;;;;7.30;3.55;;;;;;;;;;5029221;28;19951;-58
2022/07/21 11:31:07;;;;;;;9.45;3.38;;;;;;;;;;5026493;28;20040;-58
2022/07/21 11:33:35;;;;;;;9.60;3.35;;;;;;;;;;5031901;28;20037;-57
2022/07/21 11:36:01;;;;;;;8.77;3.67;;;;;;;;;;5030416;28;20067;-57
2022/07/21 11:38:27;;;;;;;7.75;3.42;;;;;;;;;;5031977;28;20037;-58
2022/07/21 11:40:53;;;;;;;6.38;3.35;;;;;;;;;;5031043;28;20018;-57
2022/07/21 11:43:19;;;;;;;5.78;3.42;;;;;;;;;;5031020;28;20025;-58
2022/07/21 11:45:52;;;;;;;6.85;3.63;;;;;;;;;;5029051;28;20026;-57
2022/07/21 11:48:30;;;;;;;6.28;4.15;;;;;;;;;;5032685;28;20065;-57
2022/07/21 11:51:01;;;;;;;9.32;4.13;;;;;;;;;;5031427;28;20029;-58
2022/07/21 11:53:27;;;;;;;10.68;3.53;;;;;;;;;;5027616;28;20025;-57
2022/07/21 11:55:53;;;;;;;6.65;3.83;;;;;;;;;;5028320;28;20634;-57
2022/07/21 11:58:20;;;;;;;6.93;3.85;;;;;;;;;;5030457;28;20037;-58
2022/07/21 12:00:49;;;;;;;8.70;3.72;;;;;;;;;;5030733;28;20033;-57
2022/07/21 12:03:15;;;;;;;6.53;3.80;;;;;;;;;;5023730;28;20025;-57
2022/07/21 12:05:42;;;;;;;9.88;4.28;;;;;;;;;;5030819;28;20091;-58
2022/07/21 12:08:08;;;;;;;7.40;3.83;;;;;;;;;;5022010;28;20522;-58
2022/07/21 12:10:36;;;;;;;6.88;3.55;;;;;;;;;;5019625;28;20026;-57
2022/07/21 12:13:03;;;;;;;7.78;3.50;;;;;;;;;;5031690;28;20485;-58
2022/07/21 12:15:33;;;;;;;7.93;3.72;;;;;;;;;;5031390;28;20029;-58
2022/07/21 12:18:07;;;;;;;7.70;3.60;;;;;;;;;;5029311;28;20017;-58
2022/07/21 12:20:37;;;;;;;5.57;3.72;;;;;;;;;;5028309;28;20029;-57
2022/07/21 12:23:17;;;;;;;13.88;4.05;;;;;;;;;;5023401;28;20037;-57
2022/07/21 12:25:43;;;;;;;5.82;3.78;;;;;;;;;;5028054;28;20040;-57
2022/07/21 12:28:09;;;;;;;7.10;4.05;;;;;;;;;;5026189;28;20082;-59
2022/07/21 12:30:39;;;;;;;9.77;4.35;;;;;;;;;;5028547;28;20021;-58
2022/07/21 12:33:13;;;;;;;6.40;4.10;;;;;;;;;;5030710;28;20570;-57
2022/07/21 12:35:40;;;;;;;7.55;4.35;;;;;;;;;;5018800;28;20103;-58
2022/07/21 12:38:07;;;;;;;7.47;4.30;;;;;;;;;;5024345;28;20423;-57
2022/07/21 12:40:35;;;;;;;9.85;4.80;;;;;;;;;;5027860;28;20048;-57
2022/07/21 12:43:08;;;;;;;7.20;3.72;;;;;;;;;;5024264;28;20040;-57
2022/07/21 12:45:47;;;;;;;7.72;4.20;;;;;;;;;;5015008;28;20054;-58
2022/07/21 12:48:15;;;;;;;10.60;4.43;;;;;;;;;;5021048;28;20493;-57
2022/07/21 12:50:42;;;;;;;7.25;4.43;;;;;;;;;;5029808;28;20037;-57
2022/07/21 12:53:11;;;;;;;5.97;4.13;;;;;;;;;;5019386;28;20392;-58
2022/07/21 12:55:37;;;;;;;6.30;4.22;;;;;;;;;;5027594;28;20534;-58
2022/07/21 12:58:03;;;;;;;8.77;4.45;;;;;;;;;;5026102;28;20046;-58
2022/07/21 13:00:30;;;;;;;7.63;4.22;;;;;;;;;;5024615;28;20029;-57
2022/07/21 13:02:56;;;;;;;8.63;4.15;;;;;;;;;;5021897;28;20067;-59
2022/07/21 13:05:23;;;;;;;6.15;3.85;;;;;;;;;;5028360;28;20013;-58
2022/07/21 13:07:49;;;;;;;6.00;3.72;;;;;;;;;;5026367;28;20075;-57
2022/07/21 13:10:16;;;;;;;4.93;3.10;;;;;;;;;;5030266;28;20025;-58
2022/07/21 13:12:42;;;;;;;6.63;3.42;;;;;;;;;;5028928;28;20025;-58
2022/07/21 13:15:08;;;;;;;5.22;3.60;;;;;;;;;;5028508;28;20363;-58
2022/07/21 13:17:34;;;;;;;5.80;3.70;;;;;;;;;;5027605;28;20033;-58
2022/07/21 13:20:00;;;;;;;11.48;3.67;;;;;;;;;;5041337;28;20038;-57
2022/07/21 13:22:26;;;;;;;5.53;3.30;;;;;;;;;;5030677;28;20068;-59
2022/07/21 13:24:52;;;;;;;5.35;3.33;;;;;;;;;;5024915;28;20393;-57
2022/07/21 13:27:18;;;;;;;5.53;3.10;;;;;;;;;;5026585;28;20030;-57
2022/07/21 13:29:44;;;;;;;7.55;3.65;;;;;;;;;;5028701;28;20128;-58
2022/07/21 13:32:10;;;;;;;8.20;3.90;;;;;;;;;;5024296;28;20109;-57
2022/07/21 13:34:35;;;;;;;10.05;4.15;;;;;;;;;;5025021;28;20041;-58
2022/07/21 13:37:01;;;;;;;4.80;3.42;;;;;;;;;;5023602;28;20045;-58
2022/07/21 13:39:28;;;;;;;6.53;3.67;;;;;;;;;;5018738;28;20079;-58
2022/07/21 13:41:54;;;;;;;7.88;3.70;;;;;;;;;;5024644;28;20030;-58
2022/07/21 13:44:20;;;;;;;8.88;3.22;;;;;;;;;;5030279;28;20439;-59
2022/07/21 13:46:46;;;;;;;5.47;3.55;;;;;;;;;;5028445;28;20104;-58
2022/07/21 13:49:12;;;;;;;7.55;3.95;;;;;;;;;;5028884;28;20026;-58
2022/07/21 13:51:38;;;;;;;5.72;4.05;;;;;;;;;;5020375;28;20034;-58
2022/07/21 13:54:04;;;;;;;6.63;4.10;;;;;;;;;;5028025;28;20136;-58
2022/07/21 13:56:30;;;;;;;7.13;3.90;;;;;;;;;;5017434;28;20041;-59
2022/07/21 13:58:56;;;;;;;9.90;3.75;;;;;;;;;;5027451;28;20156;-58
2022/07/21 14:01:22;;;;;;;9.05;3.88;;;;;;;;;;5023128;28;20494;-60
2022/07/21 14:03:49;;;;;;;7.40;3.80;;;;;;;;;;5025717;28;20034;-58
2022/07/21 14:06:16;;;;;;;7.93;3.90;;;;;;;;;;5031219;28;20033;-58
2022/07/21 14:08:42;;;;;;;4.85;3.65;;;;;;;;;;5027336;28;20113;-58
2022/07/21 14:11:08;;;;;;;7.05;3.63;;;;;;;;;;5030723;28;20366;-58
2022/07/21 14:13:34;;;;;;;7.03;3.55;;;;;;;;;;5033636;28;20037;-59
2022/07/21 14:16:01;;;;;;;7.57;4.03;;;;;;;;;;5030187;28;20478;-57
2022/07/21 14:18:27;;;;;;;5.50;3.53;;;;;;;;;;5030754;28;20485;-59
2022/07/21 14:20:53;;;;;;;9.15;3.80;;;;;;;;;;5033069;28;20022;-58
2022/07/21 14:23:22;;;;;;;5.30;2.97;;;;;;;;;;5021836;28;20035;-58
2022/07/21 14:25:50;;;;;;;3.60;2.65;;;;;;;;;;5035584;28;20025;-57
2022/07/21 14:28:16;;;;;;;5.78;3.20;;;;;;;;;;5025915;28;20112;-57
2022/07/21 14:30:42;;;;;;;6.57;3.10;;;;;;;;;;5030220;28;20017;-55
2022/07/21 14:33:08;;;;;;;3.95;2.80;;;;;;;;;;5024137;28;20056;-57
2022/07/21 14:35:34;;;;;;;3.85;3.20;;;;;;;;;;5028627;28;20072;-57
2022/07/21 14:38:00;;;;;;;3.67;2.95;;;;;;;;;;5019339;28;20524;-56